Time;durP1;ratioP1;P1;durP2;ratioP2;P2;SDS_P1;SDS_P2;PMS_P1;PMS_P2;Temp;Humidity;BMP_temperature;BMP_pressure;BME280_temperature;BME280_humidity;BME280_pressure;Samples;Min_cycle;Max_cycle;Signal;HPM_P1;HPM_P2
2023/06/15 00:00:59;;;;;;;;;26.00;25.50;;;;;;;;1975092;28;3599158;-85
2023/06/15 00:02:10;;;;;;;;;25.67;22.67;;;;;;;;1971730;28;3587732;-84
2023/06/15 00:03:22;;;;;;;;;26.33;24.00;;;;;;;;1951834;28;3588838;-85
2023/06/15 00:04:35;;;;;;;;;25.57;23.00;;;;;;;;1965680;28;3584596;-84
2023/06/15 00:05:47;;;;;;;;;27.60;24.00;;;;;;;;1966002;28;3590806;-84
2023/06/15 00:06:58;;;;;;;;;24.40;22.60;;;;;;;;1979912;28;2851335;-85
2023/06/15 00:08:11;;;;;;;;;23.86;21.00;;;;;;;;1999705;28;3585636;-84
2023/06/15 00:09:22;;;;;;;;;26.80;22.60;;;;;;;;1984562;28;3586709;-84
2023/06/15 00:10:36;;;;;;;;;26.63;21.88;;;;;;;;2003159;28;3588750;-84
2023/06/15 00:11:47;;;;;;;;;21.67;20.33;;;;;;;;1973460;28;3581498;-84
2023/06/15 00:12:58;;;;;;;;;22.40;20.80;;;;;;;;1970683;28;2843028;-83
2023/06/15 00:14:10;;;;;;;;;25.33;25.33;;;;;;;;1987004;28;3596060;-82
2023/06/15 00:15:23;;;;;;;;;27.38;25.00;;;;;;;;1984007;28;3598194;-82
2023/06/15 00:16:41;;;;;;;;;25.00;23.33;;;;;;;;1977681;28;3596056;-82
2023/06/15 00:17:53;;;;;;;;;27.00;24.00;;;;;;;;1960455;28;3591934;-81
2023/06/15 00:19:05;;;;;;;;;22.60;20.40;;;;;;;;1974432;28;3559589;-81
2023/06/15 00:20:17;;;;;;;;;26.33;24.67;;;;;;;;1958076;28;3595014;-82
2023/06/15 00:21:33;;;;;;;;;25.33;24.67;;;;;;;;1960317;28;3586686;-82
2023/06/15 00:22:45;;;;;;;;;22.00;22.00;;;;;;;;1951984;28;3580468;-82
2023/06/15 00:23:57;;;;;;;;;25.00;23.67;;;;;;;;1948406;28;3600228;-82
2023/06/15 00:25:08;;;;;;;;;19.80;18.80;;;;;;;;1980980;28;3564875;-82
2023/06/15 00:26:21;;;;;;;;;24.57;23.00;;;;;;;;1970746;28;3582472;-82
2023/06/15 00:27:35;;;;;;;;;26.63;24.63;;;;;;;;1975807;28;3587775;-81
2023/06/15 00:28:46;;;;;;;;;23.00;22.33;;;;;;;;1982812;28;3577267;-81
2023/06/15 00:29:58;;;;;;;;;26.40;23.20;;;;;;;;1980340;28;3598136;-81
2023/06/15 00:31:12;;;;;;;;;29.00;25.88;;;;;;;;1974805;28;3598105;-81
2023/06/15 00:32:23;;;;;;;;;22.33;21.33;;;;;;;;1973212;28;3581542;-82
2023/06/15 00:33:35;;;;;;;;;22.20;20.40;;;;;;;;1985870;28;3560603;-82
2023/06/15 00:34:48;;;;;;;;;23.14;22.57;;;;;;;;1992514;28;3586655;-81
2023/06/15 00:36:00;;;;;;;;;25.20;22.60;;;;;;;;1978722;28;3575193;-87
2023/06/15 00:37:11;;;;;;;;;24.40;22.80;;;;;;;;1981668;28;2846163;-86
2023/06/15 00:38:24;;;;;;;;;25.14;21.14;;;;;;;;1988627;28;3579974;-86
2023/06/15 00:39:37;;;;;;;;;24.75;22.50;;;;;;;;1969284;28;3596089;-87
2023/06/15 00:40:49;;;;;;;;;24.00;21.67;;;;;;;;1973051;28;3581438;-86
2023/06/15 00:42:01;;;;;;;;;23.80;22.60;;;;;;;;1979721;28;3581471;-86
2023/06/15 00:43:14;;;;;;;;;23.14;21.86;;;;;;;;1974046;28;3586663;-89
2023/06/15 00:44:25;;;;;;;;;25.20;23.80;;;;;;;;1958971;28;2848282;-90
2023/06/15 00:45:36;;;;;;;;;27.00;23.00;;;;;;;;1969279;28;3581596;-89
2023/06/15 00:46:49;;;;;;;;;21.86;19.71;;;;;;;;1969654;28;3583522;-90
2023/06/15 00:48:00;;;;;;;;;22.80;21.00;;;;;;;;1965239;28;2845163;-89
2023/06/15 00:49:12;;;;;;;;;19.67;19.67;;;;;;;;1988307;28;3576270;-90
2023/06/15 00:50:23;;;;;;;;;21.80;19.60;;;;;;;;1956519;28;2841052;-89
2023/06/15 00:51:38;;;;;;;;;18.00;18.00;;;;;;;;1978716;28;3577285;-90
2023/06/15 00:52:50;;;;;;;;;21.00;20.00;;;;;;;;1943588;28;3568224;-90
2023/06/15 00:54:02;;;;;;;;;21.50;21.00;;;;;;;;1942810;28;2840855;-90
2023/06/15 00:55:13;;;;;;;;;17.67;15.33;;;;;;;;1945199;28;3550278;-90
2023/06/15 00:56:29;;;;;;;;;25.67;21.67;;;;;;;;1979829;28;3575229;-90
2023/06/15 00:57:44;;;;;;;;;21.00;20.00;;;;;;;;1944038;28;2842330;-88
2023/06/15 00:58:56;;;;;;;;;22.00;21.00;;;;;;;;1953959;28;3574182;-84
2023/06/15 01:00:09;;;;;;;;;19.33;17.33;;;;;;;;1962114;28;3571066;-88
2023/06/15 01:01:20;;;;;;;;;20.50;18.50;;;;;;;;1953420;28;2831504;-85
2023/06/15 01:02:34;;;;;;;;;21.40;20.20;;;;;;;;1974560;28;3577288;-85
2023/06/15 01:03:45;;;;;;;;;22.50;19.00;;;;;;;;1976711;28;2838763;-86
2023/06/15 01:04:56;;;;;;;;;19.00;17.00;;;;;;;;1968897;28;3567925;-86
2023/06/15 01:06:13;;;;;;;;;22.60;19.00;;;;;;;;1987712;28;3581812;-86
2023/06/15 01:07:27;;;;;;;;;19.00;19.00;;;;;;;;1961098;28;2850265;-86
2023/06/15 01:08:43;;;;;;;;;19.00;17.00;;;;;;;;1954698;28;2828336;-87
2023/06/15 01:09:55;;;;;;;;;23.00;18.33;;;;;;;;1977345;28;3572096;-86
2023/06/15 01:11:07;;;;;;;;;21.20;21.20;;;;;;;;1967880;28;3573106;-86
2023/06/15 01:12:17;;;;;;;;;19.60;17.60;;;;;;;;1969399;28;2838756;-86
2023/06/15 01:13:31;;;;;;;;;19.00;18.00;;;;;;;;1993451;28;3578428;-87
2023/06/15 01:14:43;;;;;;;;;17.00;17.00;;;;;;;;1964099;28;3565845;-86
2023/06/15 01:15:56;;;;;;;;;22.00;20.00;;;;;;;;1967880;28;3571453;-86
2023/06/15 01:17:10;;;;;;;;;17.00;17.00;;;;;;;;1954171;28;2824210;-87
2023/06/15 01:18:21;;;;;;;;;19.00;16.50;;;;;;;;1947716;28;2828411;-88
2023/06/15 01:19:53;;;;;;;;;17.80;17.60;;;;;;;;1949510;28;3571074;-87
2023/06/15 01:21:06;;;;;;;;;17.67;16.00;;;;;;;;1970047;28;3551266;-88
2023/06/15 01:22:35;;;;;;;;;24.50;19.50;;;;;;;;1947892;28;2836727;-88
2023/06/15 01:23:55;;;;;;;;;17.33;17.33;;;;;;;;1946458;28;3558578;-88
2023/06/15 01:25:29;;;;;;;;;17.33;15.00;;;;;;;;1953447;28;3550225;-90
2023/06/15 01:26:41;;;;;;;;;19.00;18.00;;;;;;;;1975670;28;2824220;-83
2023/06/15 01:27:59;;;;;;;;;17.67;15.00;;;;;;;;1976701;28;3549200;-77
2023/06/15 01:29:10;;;;;;;;;18.00;17.00;;;;;;;;1986020;28;2827740;-79
2023/06/15 01:30:22;;;;;;;;;17.60;17.40;;;;;;;;1965624;28;3569022;-79
2023/06/15 01:31:35;;;;;;;;;18.29;16.57;;;;;;;;2006229;28;3571079;-89
2023/06/15 01:32:46;;;;;;;;;20.00;17.50;;;;;;;;1954049;28;2837833;-90
2023/06/15 01:34:00;;;;;;;;;19.40;16.20;;;;;;;;1964988;28;3566882;-89
2023/06/15 01:35:11;;;;;;;;;18.00;17.00;;;;;;;;1963350;28;3565849;-89
2023/06/15 01:36:23;;;;;;;;;17.20;16.00;;;;;;;;1965884;28;3552310;-90
2023/06/15 01:37:36;;;;;;;;;22.00;19.14;;;;;;;;1992141;28;3584575;-90
2023/06/15 01:38:52;;;;;;;;;25.00;22.00;;;;;;;;1968624;28;2837858;-89
2023/06/15 01:40:04;;;;;;;;;18.67;18.67;;;;;;;;1983525;28;3573164;-83
2023/06/15 01:41:17;;;;;;;;;19.00;16.33;;;;;;;;1954646;28;3562733;-84
2023/06/15 01:42:28;;;;;;;;;19.00;18.00;;;;;;;;1959982;28;3565874;-84
2023/06/15 01:43:41;;;;;;;;;17.71;16.43;;;;;;;;1979770;28;3558602;-84
2023/06/15 01:44:55;;;;;;;;;15.60;15.60;;;;;;;;1982464;28;3545345;-83
2023/06/15 01:46:06;;;;;;;;;19.67;18.33;;;;;;;;1986567;28;2837711;-83
2023/06/15 01:47:17;;;;;;;;;21.00;19.00;;;;;;;;1984165;28;2835624;-83
2023/06/15 01:48:29;;;;;;;;;18.00;15.40;;;;;;;;1983029;28;3544985;-83
2023/06/15 01:49:40;;;;;;;;;23.50;18.00;;;;;;;;1987458;28;2834613;-83
2023/06/15 01:50:52;;;;;;;;;15.40;15.40;;;;;;;;1986919;28;3548152;-86
2023/06/15 01:52:04;;;;;;;;;17.33;17.33;;;;;;;;1983320;28;3571102;-86
2023/06/15 01:53:16;;;;;;;;;19.80;18.60;;;;;;;;1971224;28;3575193;-87
2023/06/15 01:54:27;;;;;;;;;20.80;19.20;;;;;;;;1952228;28;2848262;-87
2023/06/15 01:55:37;;;;;;;;;18.40;17.60;;;;;;;;1975438;28;2840003;-86
2023/06/15 01:56:50;;;;;;;;;19.43;15.71;;;;;;;;2010365;28;3551228;-86
2023/06/15 01:58:01;;;;;;;;;23.20;19.60;;;;;;;;1967169;28;2841977;-86
2023/06/15 01:59:13;;;;;;;;;18.80;18.80;;;;;;;;2009398;28;3566900;-83
2023/06/15 02:00:25;;;;;;;;;19.40;17.20;;;;;;;;2011607;28;3566912;-83
2023/06/15 02:01:36;;;;;;;;;18.60;16.60;;;;;;;;1985702;28;2826291;-83
2023/06/15 02:02:49;;;;;;;;;20.29;18.57;;;;;;;;1998848;28;3590857;-83
2023/06/15 02:04:01;;;;;;;;;20.00;18.00;;;;;;;;1964060;28;3568983;-82
2023/06/15 02:05:12;;;;;;;;;19.80;19.40;;;;;;;;1968112;28;2844070;-86
2023/06/15 02:06:23;;;;;;;;;19.80;16.60;;;;;;;;1988847;28;3563770;-91
2023/06/15 02:07:35;;;;;;;;;20.40;18.20;;;;;;;;2010901;28;3576295;-91
2023/06/15 02:08:47;;;;;;;;;17.40;16.00;;;;;;;;1980752;28;3555433;-91
2023/06/15 02:09:59;;;;;;;;;17.60;16.80;;;;;;;;2004453;28;3560602;-91
2023/06/15 02:11:11;;;;;;;;;14.80;14.80;;;;;;;;2000597;28;3521664;-82
2023/06/15 02:12:23;;;;;;;;;16.00;14.60;;;;;;;;2005321;28;3528341;-83
2023/06/15 02:13:35;;;;;;;;;21.40;18.00;;;;;;;;2005304;28;3561684;-83
2023/06/15 02:14:47;;;;;;;;;17.29;17.29;;;;;;;;1983660;28;3559616;-81
2023/06/15 02:16:00;;;;;;;;;21.60;17.40;;;;;;;;1986535;28;3576235;-80
2023/06/15 02:17:11;;;;;;;;;18.40;17.40;;;;;;;;1975649;28;3567920;-80
2023/06/15 02:18:23;;;;;;;;;14.60;14.60;;;;;;;;2011454;28;3521524;-80
2023/06/15 02:19:35;;;;;;;;;17.60;17.60;;;;;;;;1994120;28;2835716;-80
2023/06/15 02:20:46;;;;;;;;;21.67;19.00;;;;;;;;1984895;28;2836669;-80
2023/06/15 02:21:57;;;;;;;;;19.00;17.50;;;;;;;;1979518;28;2834095;-80
2023/06/15 02:23:10;;;;;;;;;17.00;12.60;;;;;;;;1979386;28;3543953;-80
2023/06/15 02:24:21;;;;;;;;;18.67;16.67;;;;;;;;1987187;28;2829386;-80
2023/06/15 02:25:32;;;;;;;;;16.67;16.00;;;;;;;;1979513;28;3558578;-80
2023/06/15 02:26:44;;;;;;;;;18.00;15.60;;;;;;;;2009301;28;3558622;-80
2023/06/15 02:27:59;;;;;;;;;21.20;19.20;;;;;;;;2006027;28;3575185;-80
2023/06/15 02:29:10;;;;;;;;;15.00;13.67;;;;;;;;1955806;28;3534582;-80
2023/06/15 02:30:21;;;;;;;;;18.00;17.60;;;;;;;;1993170;28;2839924;-80
2023/06/15 02:31:32;;;;;;;;;18.60;18.60;;;;;;;;1993027;28;2837775;-80
2023/06/15 02:32:43;;;;;;;;;17.33;17.00;;;;;;;;1986622;28;3558578;-80
2023/06/15 02:33:56;;;;;;;;;18.29;16.86;;;;;;;;1983004;28;3567948;-80
2023/06/15 02:35:12;;;;;;;;;17.29;16.29;;;;;;;;1983260;28;3558592;-82
2023/06/15 02:36:23;;;;;;;;;19.00;16.50;;;;;;;;1985982;28;2824292;-80
2023/06/15 02:37:33;;;;;;;;;14.50;14.50;;;;;;;;1980092;28;2804509;-80
2023/06/15 02:38:45;;;;;;;;;18.20;15.80;;;;;;;;1997801;28;3549230;-80
2023/06/15 02:39:57;;;;;;;;;16.20;14.80;;;;;;;;2005666;28;3539779;-80
2023/06/15 02:41:09;;;;;;;;;13.50;13.50;;;;;;;;1996770;28;2791966;-80
2023/06/15 02:42:21;;;;;;;;;15.00;15.00;;;;;;;;1969814;28;3533521;-80
2023/06/15 02:43:33;;;;;;;;;13.80;12.00;;;;;;;;2013031;28;3542911;-82
2023/06/15 02:44:46;;;;;;;;;19.80;17.00;;;;;;;;2012089;28;3566868;-80
2023/06/15 02:45:57;;;;;;;;;16.67;16.33;;;;;;;;1975488;28;3560648;-81
2023/06/15 02:47:09;;;;;;;;;17.00;16.20;;;;;;;;2005314;28;3556519;-81
2023/06/15 02:48:21;;;;;;;;;19.80;18.20;;;;;;;;2008159;28;3571019;-81
2023/06/15 02:49:33;;;;;;;;;13.40;11.40;;;;;;;;1999153;28;3524200;-81
2023/06/15 02:50:45;;;;;;;;;17.80;15.60;;;;;;;;2012568;28;3549190;-81
2023/06/15 02:51:56;;;;;;;;;16.60;16.60;;;;;;;;2009337;28;3559592;-81
2023/06/15 02:53:08;;;;;;;;;18.60;17.60;;;;;;;;2011978;28;3560616;-82
2023/06/15 02:54:23;;;;;;;;;18.40;16.00;;;;;;;;2003481;28;3543258;-82
2023/06/15 02:55:33;;;;;;;;;16.00;13.00;;;;;;;;1968798;28;2785669;-86
2023/06/15 02:56:46;;;;;;;;;20.33;17.00;;;;;;;;1951192;28;2814834;-86
2023/06/15 02:57:57;;;;;;;;;15.00;14.00;;;;;;;;1977217;28;3531540;-86
2023/06/15 02:59:09;;;;;;;;;12.00;12.00;;;;;;;;1984395;28;2794002;-86
2023/06/15 03:00:20;;;;;;;;;15.67;14.00;;;;;;;;1971596;28;3538822;-86
2023/06/15 03:01:38;;;;;;;;;19.00;17.20;;;;;;;;1999693;28;3564818;-86
2023/06/15 03:02:52;;;;;;;;;19.67;18.00;;;;;;;;1970074;28;3579388;-83
2023/06/15 03:04:03;;;;;;;;;19.50;18.00;;;;;;;;1978300;28;2831548;-83
2023/06/15 03:05:14;;;;;;;;;14.50;13.50;;;;;;;;1954740;28;2804445;-82
2023/06/15 03:06:26;;;;;;;;;16.00;15.00;;;;;;;;1999229;28;2819117;-87
2023/06/15 03:07:40;;;;;;;;;14.67;13.00;;;;;;;;1965674;28;3519538;-82
2023/06/15 03:08:51;;;;;;;;;19.00;17.00;;;;;;;;1976350;28;3566914;-80
2023/06/15 03:10:03;;;;;;;;;16.80;16.80;;;;;;;;1988303;28;3564785;-80
2023/06/15 03:11:15;;;;;;;;;14.20;12.60;;;;;;;;2004522;28;3508552;-82
2023/06/15 03:12:27;;;;;;;;;17.00;16.60;;;;;;;;2005553;28;3557561;-82
2023/06/15 03:13:39;;;;;;;;;18.20;16.40;;;;;;;;2012681;28;3560600;-83
2023/06/15 03:14:51;;;;;;;;;15.33;15.33;;;;;;;;1995104;28;3548494;-83
2023/06/15 03:16:06;;;;;;;;;16.40;14.40;;;;;;;;2002582;28;3535643;-81
2023/06/15 03:17:17;;;;;;;;;17.00;14.00;;;;;;;;1985776;28;2821176;-77
2023/06/15 03:18:29;;;;;;;;;19.40;15.80;;;;;;;;1970359;28;3562694;-76
2023/06/15 03:19:40;;;;;;;;;18.00;17.00;;;;;;;;1993709;28;2830438;-76
2023/06/15 03:20:52;;;;;;;;;20.60;18.60;;;;;;;;2000532;28;3562697;-83
2023/06/15 03:22:04;;;;;;;;;15.00;15.00;;;;;;;;1986185;28;2809603;-83
2023/06/15 03:23:15;;;;;;;;;16.67;15.33;;;;;;;;1981207;28;2816049;-83
2023/06/15 03:24:25;;;;;;;;;17.00;15.50;;;;;;;;1983562;28;2805507;-83
2023/06/15 03:25:37;;;;;;;;;17.33;16.67;;;;;;;;1973321;28;3560642;-83
2023/06/15 03:26:49;;;;;;;;;16.80;16.20;;;;;;;;2000318;28;3552273;-83
2023/06/15 03:28:01;;;;;;;;;12.00;9.33;;;;;;;;2003442;28;2781551;-83
2023/06/15 03:29:13;;;;;;;;;17.40;15.80;;;;;;;;1964792;28;3552305;-83
2023/06/15 03:30:28;;;;;;;;;18.80;16.40;;;;;;;;2001464;28;3557582;-82
2023/06/15 03:31:42;;;;;;;;;17.67;15.33;;;;;;;;1982996;28;2820122;-87
2023/06/15 03:32:53;;;;;;;;;17.67;16.00;;;;;;;;1983134;28;3559592;-87
2023/06/15 03:34:07;;;;;;;;;18.57;15.14;;;;;;;;1982212;28;3546074;-87
2023/06/15 03:35:20;;;;;;;;;17.00;17.00;;;;;;;;1959651;28;3560649;-87
2023/06/15 03:36:31;;;;;;;;;15.00;15.00;;;;;;;;1984016;28;3533551;-87
2023/06/15 03:37:43;;;;;;;;;18.80;16.20;;;;;;;;1992352;28;3557501;-87
2023/06/15 03:38:56;;;;;;;;;16.00;16.00;;;;;;;;2010468;28;3550206;-87
2023/06/15 03:40:07;;;;;;;;;18.67;15.33;;;;;;;;1977410;28;2816906;-92
2023/06/15 03:41:18;;;;;;;;;16.33;15.67;;;;;;;;1973273;28;3552297;-93
2023/06/15 03:42:30;;;;;;;;;18.20;17.00;;;;;;;;1994367;28;3557476;-92
2023/06/15 03:43:42;;;;;;;;;19.40;19.40;;;;;;;;1991380;28;3567898;-93
2023/06/15 03:44:55;;;;;;;;;18.86;17.43;;;;;;;;1990839;28;3555453;-92
2023/06/15 03:46:07;;;;;;;;;20.80;18.40;;;;;;;;1978185;28;3576265;-91
2023/06/15 03:47:19;;;;;;;;;18.20;16.00;;;;;;;;1979179;28;3553313;-92
2023/06/15 03:48:30;;;;;;;;;14.00;12.50;;;;;;;;1978100;28;2801298;-92
2023/06/15 03:49:41;;;;;;;;;19.00;17.40;;;;;;;;1947138;28;2839932;-92
2023/06/15 03:50:55;;;;;;;;;18.14;18.14;;;;;;;;1994172;28;3579758;-83
2023/06/15 03:52:06;;;;;;;;;20.50;19.50;;;;;;;;1963422;28;2837782;-82
2023/06/15 03:53:18;;;;;;;;;16.40;16.40;;;;;;;;1976104;28;3557481;-82
2023/06/15 03:54:30;;;;;;;;;18.20;16.40;;;;;;;;2010310;28;3560609;-82
2023/06/15 03:55:41;;;;;;;;;17.60;16.00;;;;;;;;2003696;28;3558918;-82
2023/06/15 03:56:54;;;;;;;;;16.29;15.71;;;;;;;;2002466;28;3552330;-82
2023/06/15 03:58:06;;;;;;;;;18.40;18.20;;;;;;;;1984122;28;3571039;-82
2023/06/15 03:59:18;;;;;;;;;16.00;14.80;;;;;;;;1987255;28;3541868;-82
2023/06/15 04:00:30;;;;;;;;;16.40;16.00;;;;;;;;2008125;28;3556489;-82
2023/06/15 04:01:43;;;;;;;;;17.20;15.80;;;;;;;;2004337;28;3550206;-82
2023/06/15 04:02:53;;;;;;;;;15.50;13.00;;;;;;;;1981029;28;2791386;-82
2023/06/15 04:04:06;;;;;;;;;15.86;14.29;;;;;;;;1977454;28;3525266;-82
2023/06/15 04:05:19;;;;;;;;;18.60;16.20;;;;;;;;2006473;28;3565841;-83
2023/06/15 04:06:29;;;;;;;;;12.00;12.00;;;;;;;;1987414;28;2791888;-85
2023/06/15 04:07:41;;;;;;;;;17.80;17.20;;;;;;;;1975846;28;3561667;-82
2023/06/15 04:08:54;;;;;;;;;17.29;14.29;;;;;;;;2005618;28;3546582;-82
2023/06/15 04:10:08;;;;;;;;;15.71;15.57;;;;;;;;2001874;28;3551287;-80
2023/06/15 04:11:18;;;;;;;;;16.50;15.00;;;;;;;;1983979;28;2819005;-80
2023/06/15 04:12:29;;;;;;;;;10.75;9.50;;;;;;;;1989958;28;1818989;-80
2023/06/15 04:13:40;;;;;;;;;17.00;14.00;;;;;;;;1980629;28;2810667;-82
2023/06/15 04:14:51;;;;;;;;;16.33;14.00;;;;;;;;1988387;28;3543971;-82
2023/06/15 04:16:04;;;;;;;;;14.14;13.43;;;;;;;;2004742;28;2798148;-82
2023/06/15 04:17:15;;;;;;;;;16.50;15.50;;;;;;;;1983637;28;2825282;-82
2023/06/15 04:18:26;;;;;;;;;16.33;15.67;;;;;;;;1973863;28;3557512;-82
2023/06/15 04:19:38;;;;;;;;;18.80;17.00;;;;;;;;1978467;28;3560664;-82
2023/06/15 04:20:51;;;;;;;;;15.60;15.00;;;;;;;;2005259;28;3540854;-82
2023/06/15 04:22:02;;;;;;;;;14.33;14.33;;;;;;;;1989388;28;2798284;-82
2023/06/15 04:23:12;;;;;;;;;18.50;16.00;;;;;;;;1984027;28;2823159;-82
2023/06/15 04:24:24;;;;;;;;;17.60;17.60;;;;;;;;1987517;28;3562710;-86
2023/06/15 04:25:37;;;;;;;;;18.00;16.00;;;;;;;;2004594;28;3567371;-85
2023/06/15 04:26:48;;;;;;;;;16.40;15.80;;;;;;;;1983284;28;3543968;-85
2023/06/15 04:28:00;;;;;;;;;18.60;16.60;;;;;;;;2013574;28;3558515;-85
2023/06/15 04:29:11;;;;;;;;;18.80;17.60;;;;;;;;1993736;28;2835647;-85
2023/06/15 04:30:24;;;;;;;;;16.33;14.00;;;;;;;;1980197;28;2812948;-85
2023/06/15 04:31:34;;;;;;;;;16.50;15.00;;;;;;;;1977849;28;2806485;-85
2023/06/15 04:32:50;;;;;;;;;16.40;16.00;;;;;;;;1989864;28;3554444;-85
2023/06/15 04:34:04;;;;;;;;;14.00;14.00;;;;;;;;1988254;28;2802323;-85
2023/06/15 04:35:16;;;;;;;;;24.00;17.67;;;;;;;;1960688;28;3590856;-82
2023/06/15 04:36:31;;;;;;;;;18.20;17.00;;;;;;;;1973412;28;3568974;-81
2023/06/15 04:37:41;;;;;;;;;16.00;15.00;;;;;;;;1979415;28;2816886;-81
2023/06/15 04:38:53;;;;;;;;;18.20;17.40;;;;;;;;1977109;28;3567918;-81
2023/06/15 04:40:07;;;;;;;;;16.80;15.80;;;;;;;;2006145;28;3558596;-81
2023/06/15 04:41:22;;;;;;;;;8.67;5.67;;;;;;;;1985585;28;2748168;-84
2023/06/15 04:42:33;;;;;;;;;14.50;14.50;;;;;;;;1981576;28;2806966;-83
2023/06/15 04:43:43;;;;;;;;;18.50;15.50;;;;;;;;1958574;28;2831507;-84
2023/06/15 04:44:56;;;;;;;;;15.43;15.29;;;;;;;;1975931;28;3561675;-84
2023/06/15 04:46:08;;;;;;;;;16.20;15.20;;;;;;;;2007505;28;3530438;-84
2023/06/15 04:47:20;;;;;;;;;18.80;17.60;;;;;;;;2006593;28;3570041;-84
2023/06/15 04:48:33;;;;;;;;;17.00;15.57;;;;;;;;2000550;28;3548145;-88
2023/06/15 04:49:45;;;;;;;;;18.40;14.60;;;;;;;;1993898;28;3540831;-78
2023/06/15 04:50:57;;;;;;;;;18.40;17.20;;;;;;;;1990857;28;3562694;-79
2023/06/15 04:52:09;;;;;;;;;14.00;13.67;;;;;;;;1972293;28;3527358;-77
2023/06/15 04:53:20;;;;;;;;;14.00;13.50;;;;;;;;1984792;28;2789851;-77
2023/06/15 04:54:31;;;;;;;;;13.75;13.25;;;;;;;;2009149;28;2794044;-77
2023/06/15 04:55:43;;;;;;;;;20.80;17.60;;;;;;;;1979387;28;3573109;-79
2023/06/15 04:56:57;;;;;;;;;17.67;16.67;;;;;;;;1988105;28;2814896;-80
2023/06/15 04:58:07;;;;;;;;;11.50;9.00;;;;;;;;1985006;28;2765925;-79
2023/06/15 04:59:18;;;;;;;;;11.00;10.50;;;;;;;;1963309;28;2791879;-79
2023/06/15 05:00:30;;;;;;;;;16.00;14.40;;;;;;;;1982953;28;3533595;-76
2023/06/15 05:01:42;;;;;;;;;19.00;17.60;;;;;;;;1992400;28;3565810;-76
2023/06/15 05:02:54;;;;;;;;;18.60;16.60;;;;;;;;2000872;28;3573109;-76
2023/06/15 05:04:07;;;;;;;;;15.14;14.57;;;;;;;;2004799;28;3530520;-76
2023/06/15 05:05:18;;;;;;;;;16.67;15.67;;;;;;;;1981478;28;3552337;-76
2023/06/15 05:06:30;;;;;;;;;17.60;17.20;;;;;;;;2010500;28;3566923;-76
2023/06/15 05:07:41;;;;;;;;;19.60;17.60;;;;;;;;1985094;28;2837826;-76
2023/06/15 05:08:52;;;;;;;;;19.00;17.50;;;;;;;;1981258;28;2827702;-76
2023/06/15 05:10:04;;;;;;;;;16.80;14.40;;;;;;;;2012118;28;3543988;-76
2023/06/15 05:11:16;;;;;;;;;15.00;14.33;;;;;;;;1995764;28;2801429;-76
2023/06/15 05:12:26;;;;;;;;;15.50;14.00;;;;;;;;1977404;28;2805226;-76
2023/06/15 05:13:39;;;;;;;;;17.57;16.57;;;;;;;;1974637;28;3548146;-76
2023/06/15 05:14:52;;;;;;;;;16.14;15.71;;;;;;;;1998620;28;3545021;-75
2023/06/15 05:16:04;;;;;;;;;18.14;16.14;;;;;;;;1997604;28;3562772;-75
2023/06/15 05:17:17;;;;;;;;;16.60;15.80;;;;;;;;1984542;28;3552315;-75
2023/06/15 05:18:28;;;;;;;;;17.67;16.67;;;;;;;;1984394;28;3557584;-75
2023/06/15 05:19:40;;;;;;;;;27.80;25.00;;;;;;;;2001435;28;3586717;-75
2023/06/15 05:20:52;;;;;;;;;33.80;31.20;;;;;;;;1972394;28;3602304;-75
2023/06/15 05:22:05;;;;;;;;;27.33;24.33;;;;;;;;1967868;28;3585889;-75
2023/06/15 05:23:15;;;;;;;;;25.00;23.00;;;;;;;;1958396;28;2846103;-75
2023/06/15 05:24:27;;;;;;;;;26.67;23.67;;;;;;;;1976553;28;3582527;-75
2023/06/15 05:25:39;;;;;;;;;24.80;22.40;;;;;;;;1979867;28;3583549;-75
2023/06/15 05:26:50;;;;;;;;;22.20;20.00;;;;;;;;1965808;28;2837867;-75
2023/06/15 05:28:01;;;;;;;;;22.80;17.60;;;;;;;;1987442;28;3579782;-75
2023/06/15 05:29:13;;;;;;;;;27.40;24.20;;;;;;;;1994522;28;3582531;-75
2023/06/15 05:30:26;;;;;;;;;18.20;15.80;;;;;;;;1977754;28;3560654;-75
2023/06/15 05:31:37;;;;;;;;;17.00;17.00;;;;;;;;1985919;28;2833599;-75
2023/06/15 05:32:48;;;;;;;;;21.50;18.00;;;;;;;;1985314;28;2837778;-75
2023/06/15 05:34:00;;;;;;;;;18.60;16.60;;;;;;;;1986929;28;3557525;-75
2023/06/15 05:35:10;;;;;;;;;20.40;17.60;;;;;;;;1982964;28;2833630;-75
2023/06/15 05:36:22;;;;;;;;;18.60;17.40;;;;;;;;1975844;28;2837874;-75
2023/06/15 05:37:33;;;;;;;;;18.00;17.00;;;;;;;;1970916;28;2828436;-75
2023/06/15 05:38:44;;;;;;;;;18.00;18.00;;;;;;;;1947223;28;2833587;-75
2023/06/15 05:39:54;;;;;;;;;18.00;18.00;;;;;;;;1975860;28;2830424;-75
2023/06/15 05:41:05;;;;;;;;;18.80;17.40;;;;;;;;1969844;28;2834717;-75
2023/06/15 05:42:17;;;;;;;;;24.00;18.33;;;;;;;;1981907;28;3580425;-75
2023/06/15 05:43:29;;;;;;;;;18.43;18.14;;;;;;;;1983883;28;3573137;-75
2023/06/15 05:44:43;;;;;;;;;14.71;14.71;;;;;;;;1981171;28;2810672;-75
2023/06/15 05:45:53;;;;;;;;;21.00;21.00;;;;;;;;1981222;28;2831579;-75
2023/06/15 05:47:06;;;;;;;;;16.14;15.00;;;;;;;;1976987;28;3542216;-75
2023/06/15 05:48:19;;;;;;;;;21.60;20.60;;;;;;;;1993340;28;2841023;-76
2023/06/15 05:49:29;;;;;;;;;20.00;16.00;;;;;;;;1982068;28;2827306;-76
2023/06/15 05:50:41;;;;;;;;;19.60;15.20;;;;;;;;1982723;28;3563727;-76
2023/06/15 05:51:54;;;;;;;;;19.57;17.86;;;;;;;;1997308;28;3575221;-75
2023/06/15 05:53:07;;;;;;;;;19.29;17.29;;;;;;;;1975370;28;3575785;-75
2023/06/15 05:54:20;;;;;;;;;20.43;17.86;;;;;;;;1967067;28;3568982;-76
2023/06/15 05:55:33;;;;;;;;;20.40;18.20;;;;;;;;1962361;28;3572579;-76
2023/06/15 05:56:43;;;;;;;;;22.00;19.00;;;;;;;;1960358;28;2836029;-76
2023/06/15 05:57:54;;;;;;;;;17.20;17.20;;;;;;;;1969582;28;2839902;-76
2023/06/15 05:59:08;;;;;;;;;18.71;17.14;;;;;;;;2004001;28;3567926;-75
2023/06/15 06:00:19;;;;;;;;;20.00;16.00;;;;;;;;1957349;28;3563828;-75
2023/06/15 06:01:30;;;;;;;;;20.20;19.00;;;;;;;;1964411;28;2837838;-75
2023/06/15 06:02:42;;;;;;;;;15.80;15.60;;;;;;;;2009632;28;3548157;-75
2023/06/15 06:03:54;;;;;;;;;14.67;14.00;;;;;;;;1982168;28;3539805;-76
2023/06/15 06:05:06;;;;;;;;;14.80;14.20;;;;;;;;2008996;28;3532515;-76
2023/06/15 06:06:17;;;;;;;;;13.33;13.33;;;;;;;;1998841;28;2814964;-75
2023/06/15 06:07:28;;;;;;;;;16.50;14.50;;;;;;;;1987532;28;2807591;-75
2023/06/15 06:08:40;;;;;;;;;17.60;14.60;;;;;;;;1986387;28;3546058;-79
2023/06/15 06:09:51;;;;;;;;;12.20;11.00;;;;;;;;2002651;28;3518439;-75
2023/06/15 06:11:07;;;;;;;;;14.40;14.40;;;;;;;;2003608;28;3516886;-75
2023/06/15 06:12:17;;;;;;;;;14.00;11.00;;;;;;;;1984258;28;2799202;-75
2023/06/15 06:13:30;;;;;;;;;16.60;14.60;;;;;;;;1986940;28;3526286;-75
2023/06/15 06:14:41;;;;;;;;;16.40;15.00;;;;;;;;1989329;28;3547507;-76
2023/06/15 06:15:53;;;;;;;;;12.67;9.83;;;;;;;;2006740;28;2797138;-75
2023/06/15 06:17:05;;;;;;;;;15.60;14.20;;;;;;;;1983859;28;2816975;-75
2023/06/15 06:18:16;;;;;;;;;17.00;16.00;;;;;;;;1984456;28;2815465;-75
2023/06/15 06:19:27;;;;;;;;;15.33;13.00;;;;;;;;1977641;28;3539864;-76
2023/06/15 06:20:39;;;;;;;;;12.83;11.33;;;;;;;;1992308;28;2796057;-75
2023/06/15 06:21:50;;;;;;;;;13.25;11.25;;;;;;;;1979712;28;1829512;-75
2023/06/15 06:23:03;;;;;;;;;17.00;12.00;;;;;;;;1987024;28;2807534;-75
2023/06/15 06:24:13;;;;;;;;;12.50;12.00;;;;;;;;1953796;28;2786698;-75
2023/06/15 06:25:25;;;;;;;;;14.20;13.20;;;;;;;;1981154;28;3529398;-75
2023/06/15 06:26:37;;;;;;;;;15.00;12.60;;;;;;;;2010903;28;3518948;-75
2023/06/15 06:27:48;;;;;;;;;12.00;11.00;;;;;;;;2003126;28;2801302;-75
2023/06/15 06:28:59;;;;;;;;;13.00;12.00;;;;;;;;1973379;28;2790917;-75
2023/06/15 06:30:12;;;;;;;;;16.00;13.14;;;;;;;;1975060;28;3539247;-75
2023/06/15 06:31:23;;;;;;;;;13.80;12.80;;;;;;;;2004773;28;3527275;-75
2023/06/15 06:32:36;;;;;;;;;13.14;12.14;;;;;;;;2004719;28;2802346;-75
2023/06/15 06:33:47;;;;;;;;;14.00;14.00;;;;;;;;1975573;28;3533567;-75
2023/06/15 06:34:59;;;;;;;;;13.60;13.60;;;;;;;;2007414;28;3533596;-75
2023/06/15 06:36:11;;;;;;;;;14.80;14.60;;;;;;;;2005906;28;3525261;-75
2023/06/15 06:37:22;;;;;;;;;22.20;17.60;;;;;;;;1989695;28;2837812;-75
2023/06/15 06:38:32;;;;;;;;;13.00;11.00;;;;;;;;1986512;28;2796081;-75
2023/06/15 06:39:44;;;;;;;;;14.17;12.17;;;;;;;;1980186;28;2798204;-75
2023/06/15 06:40:57;;;;;;;;;14.71;12.43;;;;;;;;1983844;28;3518274;-75
2023/06/15 06:42:10;;;;;;;;;17.00;14.71;;;;;;;;1994327;28;3525270;-75
2023/06/15 06:43:22;;;;;;;;;16.33;12.00;;;;;;;;1987535;28;2829497;-75
2023/06/15 06:44:33;;;;;;;;;11.33;11.33;;;;;;;;1976586;28;2792542;-75
2023/06/15 06:45:43;;;;;;;;;16.00;14.00;;;;;;;;1982225;28;2807551;-75
2023/06/15 06:46:56;;;;;;;;;14.00;14.00;;;;;;;;2000265;28;2800252;-75
2023/06/15 06:48:06;;;;;;;;;13.50;12.50;;;;;;;;1971424;28;2790913;-75